Time;durP1;ratioP1;P1;durP2;ratioP2;P2;SDS_P1;SDS_P2;PMS_P1;PMS_P2;Temp;Humidity;BMP_temperature;BMP_pressure;BME280_temperature;BME280_humidity;BME280_pressure;Samples;Min_cycle;Max_cycle;Signal;HPM_P1;HPM_P2
2021/06/28 00:00:43;;;;;;;11.52;10.52;;;;;;;16.97;71.16;100704.97;4869377;28;107639;-75
2021/06/28 00:03:09;;;;;;;11.82;10.80;;;;;;;17.17;70.33;100701.81;4910292;28;112580;-73
2021/06/28 00:05:35;;;;;;;11.27;10.38;;;;;;;17.08;71.13;100695.47;4920673;28;97917;-74
2021/06/28 00:08:01;;;;;;;11.32;10.23;;;;;;;17.18;71.69;100695.28;4920195;28;125222;-75
2021/06/28 00:10:30;;;;;;;12.40;11.10;;;;;;;17.13;70.67;100701.63;4905470;28;98025;-75
2021/06/28 00:12:57;;;;;;;11.80;10.90;;;;;;;16.81;71.30;100705.28;4912660;28;98866;-75
2021/06/28 00:15:29;;;;;;;12.65;11.35;;;;;;;16.78;71.40;100703.19;4900290;28;100589;-75
2021/06/28 00:17:55;;;;;;;13.07;11.98;;;;;;;16.70;72.07;100703.84;4901409;28;98200;-74
2021/06/28 00:20:22;;;;;;;12.50;11.40;;;;;;;16.76;71.84;100705.38;4901407;28;97786;-74
2021/06/28 00:22:48;;;;;;;11.40;10.38;;;;;;;16.87;71.94;100711.44;4901281;28;98778;-73
2021/06/28 00:25:17;;;;;;;11.88;10.70;;;;;;;16.63;72.67;100706.97;4885211;28;101175;-76
2021/06/28 00:27:44;;;;;;;11.50;10.60;;;;;;;16.63;72.42;100711.63;4885789;28;98903;-76
2021/06/28 00:30:13;;;;;;;11.95;10.77;;;;;;;16.71;72.49;100712.84;4900816;28;99064;-77
2021/06/28 00:32:39;;;;;;;12.05;11.00;;;;;;;16.80;72.34;100708.31;4885720;28;99487;-76
2021/06/28 00:35:06;;;;;;;12.93;11.75;;;;;;;16.77;72.83;100711.63;4903536;28;100478;-74
2021/06/28 00:37:33;;;;;;;11.98;10.90;;;;;;;16.68;71.99;100711.50;4919417;28;106348;-75
2021/06/28 00:39:59;;;;;;;11.48;10.43;;;;;;;16.56;72.20;100708.47;4920847;28;98886;-74
2021/06/28 00:42:25;;;;;;;12.02;11.02;;;;;;;16.47;73.23;100705.66;4887310;28;128128;-74
2021/06/28 00:44:54;;;;;;;12.10;11.00;;;;;;;16.57;72.17;100710.91;4919970;28;97916;-73
2021/06/28 00:47:21;;;;;;;11.82;10.73;;;;;;;16.58;72.37;100707.06;4919452;28;126330;-74
2021/06/28 00:49:47;;;;;;;12.07;11.02;;;;;;;16.66;72.85;100703.66;4920626;28;123239;-74
2021/06/28 00:52:13;;;;;;;12.10;11.00;;;;;;;16.71;71.45;100708.19;4897343;28;114734;-75
2021/06/28 00:54:39;;;;;;;13.10;11.90;;;;;;;16.75;71.68;100706.50;4910666;28;126173;-74
2021/06/28 00:57:06;;;;;;;12.32;11.13;;;;;;;16.85;71.60;100703.56;4885039;28;102525;-72
2021/06/28 00:59:32;;;;;;;13.02;11.93;;;;;;;16.42;72.44;100703.81;4902184;28;102182;-73
2021/06/28 01:02:01;;;;;;;13.32;12.13;;;;;;;16.37;72.58;100701.19;4906389;28;98754;-75
2021/06/28 01:04:28;;;;;;;12.55;11.45;;;;;;;16.40;72.43;100697.09;4901617;28;98613;-73
2021/06/28 01:06:55;;;;;;;13.02;11.93;;;;;;;16.23;72.90;100705.00;4900934;28;98234;-73
2021/06/28 01:09:21;;;;;;;13.90;12.60;;;;;;;16.43;72.51;100712.81;4884325;28;97953;-73
2021/06/28 01:11:47;;;;;;;13.23;12.05;;;;;;;16.38;72.33;100707.44;4884225;28;100290;-73
2021/06/28 01:14:13;;;;;;;12.73;11.52;;;;;;;16.49;72.23;100699.91;4869387;28;98402;-76
2021/06/28 01:16:39;;;;;;;13.23;12.02;;;;;;;16.31;72.98;100698.88;4901470;28;126217;-75
2021/06/28 01:19:05;;;;;;;12.90;11.70;;;;;;;16.60;72.42;100698.59;4884105;28;122865;-72
2021/06/28 01:21:31;;;;;;;12.65;11.55;;;;;;;16.29;73.31;100699.16;4883272;28;128180;-75
2021/06/28 01:23:57;;;;;;;13.10;11.80;;;;;;;16.36;72.98;100709.66;4868031;28;98591;-71
2021/06/28 01:26:23;;;;;;;13.70;12.40;;;;;;;16.31;72.98;100702.41;4868570;28;98388;-75
2021/06/28 01:28:50;;;;;;;12.57;11.40;;;;;;;15.80;74.57;100708.72;4902997;28;97973;-74
2021/06/28 01:31:16;;;;;;;13.00;11.80;;;;;;;16.07;74.17;100712.59;4902197;28;98336;-75
2021/06/28 01:33:42;;;;;;;12.93;11.63;;;;;;;15.89;74.10;100708.84;4899477;28;127805;-76
2021/06/28 01:36:08;;;;;;;12.63;11.52;;;;;;;15.97;73.23;100707.38;4901160;28;127851;-75
2021/06/28 01:38:34;;;;;;;13.85;12.55;;;;;;;16.09;73.20;100707.69;4884643;28;107983;-72
2021/06/28 01:41:00;;;;;;;13.18;11.98;;;;;;;15.98;72.83;100709.78;4920639;28;99394;-75
2021/06/28 01:43:26;;;;;;;12.90;11.70;;;;;;;16.21;72.96;100710.75;4920298;28;114122;-72
2021/06/28 01:45:53;;;;;;;12.95;11.85;;;;;;;15.99;73.89;100716.00;4916716;28;99341;-75
2021/06/28 01:48:19;;;;;;;12.70;11.60;;;;;;;16.01;74.10;100711.91;4901573;28;104394;-76
2021/06/28 01:50:45;;;;;;;12.95;11.75;;;;;;;15.99;73.96;100718.72;4900642;28;111783;-76
2021/06/28 01:53:12;;;;;;;13.15;11.85;;;;;;;16.03;72.85;100709.69;4899556;28;116122;-72
2021/06/28 01:55:38;;;;;;;12.60;11.57;;;;;;;15.82;73.52;100709.22;4889685;28;98191;-72
2021/06/28 01:58:06;;;;;;;12.95;11.85;;;;;;;15.67;73.95;100712.16;4901267;28;104039;-72
2021/06/28 02:00:38;;;;;;;13.18;12.02;;;;;;;15.53;74.49;100705.84;4902429;28;98200;-75
2021/06/28 02:03:12;;;;;;;12.65;11.55;;;;;;;15.65;74.03;100698.88;4900142;28;97889;-75
2021/06/28 02:05:58;;;;;;;12.43;11.30;;;;;;;15.70;73.27;100704.25;4899516;28;98570;-75
2021/06/28 02:08:27;;;;;;;12.75;11.57;;;;;;;15.79;73.67;100707.09;4899798;28;98067;-73
2021/06/28 02:10:58;;;;;;;12.70;11.60;;;;;;;15.85;73.61;100707.81;4917427;28;103295;-73
2021/06/28 02:13:29;;;;;;;12.73;11.48;;;;;;;15.95;73.06;100699.50;4921219;28;106890;-75
2021/06/28 02:15:56;;;;;;;12.40;11.32;;;;;;;16.09;72.80;100699.53;4912751;28;103386;-73
2021/06/28 02:18:24;;;;;;;12.13;11.02;;;;;;;16.15;72.28;100701.03;4919652;28;122613;-75
2021/06/28 02:20:53;;;;;;;12.10;10.88;;;;;;;16.21;72.48;100694.44;4912406;28;99162;-76
2021/06/28 02:23:22;;;;;;;12.50;11.38;;;;;;;15.88;73.13;100704.53;4920178;28;98500;-73
2021/06/28 02:26:01;;;;;;;12.45;11.35;;;;;;;15.86;73.21;100698.56;4919135;28;100469;-76
2021/06/28 02:28:29;;;;;;;12.52;11.00;;;;;;;15.66;74.11;100699.69;4902182;28;98036;-75
2021/06/28 02:30:56;;;;;;;12.68;11.50;;;;;;;15.54;74.79;100702.84;4902937;28;109659;-73
2021/06/28 02:33:22;;;;;;;12.55;11.32;;;;;;;15.66;73.88;100689.63;4883802;28;98429;-73
2021/06/28 02:35:49;;;;;;;13.57;12.27;;;;;;;15.90;72.99;100686.78;4882867;28;120520;-75
2021/06/28 02:38:15;;;;;;;12.57;11.48;;;;;;;15.96;72.60;100679.38;4883303;28;97989;-74
2021/06/28 02:40:41;;;;;;;13.40;12.23;;;;;;;15.85;72.88;100683.38;4883038;28;97962;-73
2021/06/28 02:43:07;;;;;;;12.85;11.68;;;;;;;15.99;72.72;100686.09;4900115;28;98553;-76
2021/06/28 02:45:33;;;;;;;13.30;12.10;;;;;;;16.01;72.43;100690.16;4900012;28;118880;-74
2021/06/28 02:48:00;;;;;;;12.15;11.02;;;;;;;16.22;71.97;100695.22;4898545;28;114244;-74
2021/06/28 02:50:26;;;;;;;11.98;10.95;;;;;;;16.40;71.95;100687.00;4884944;28;98453;-74
2021/06/28 02:52:52;;;;;;;12.27;11.00;;;;;;;16.43;71.47;100694.56;4901454;28;127580;-76
2021/06/28 02:55:18;;;;;;;12.18;10.80;;;;;;;16.58;71.16;100695.38;4902466;28;99369;-77
2021/06/28 02:57:44;;;;;;;11.40;10.40;;;;;;;16.59;70.40;100692.38;4915804;28;98142;-76
2021/06/28 03:00:13;;;;;;;10.45;9.65;;;;;;;16.41;70.01;100693.25;4900124;28;98517;-75
2021/06/28 03:02:39;;;;;;;10.80;9.75;;;;;;;16.43;69.91;100693.75;4898981;28;98484;-76
2021/06/28 03:05:06;;;;;;;10.93;9.90;;;;;;;16.51;70.35;100692.25;4901283;28;98935;-76
2021/06/28 03:07:33;;;;;;;10.38;9.38;;;;;;;16.46;70.58;100684.97;4898760;28;97961;-74
2021/06/28 03:09:59;;;;;;;11.30;10.30;;;;;;;16.25;70.58;100698.16;4851502;28;101520;-74
2021/06/28 03:12:25;;;;;;;10.10;9.25;;;;;;;16.42;70.37;100692.94;4899668;28;108663;-75
2021/06/28 03:14:51;;;;;;;10.35;9.45;;;;;;;16.55;69.81;100694.06;4882156;28;126009;-75
2021/06/28 03:17:17;;;;;;;10.07;9.18;;;;;;;16.54;69.89;100695.16;4898836;28;98047;-76
2021/06/28 03:19:43;;;;;;;9.75;8.90;;;;;;;16.68;70.23;100690.53;4883314;28;128442;-74
2021/06/28 03:22:09;;;;;;;10.70;9.70;;;;;;;16.63;70.14;100695.28;4901825;28;118074;-74
2021/06/28 03:24:35;;;;;;;10.85;9.85;;;;;;;16.68;70.19;100693.25;4900954;28;128344;-74
2021/06/28 03:27:01;;;;;;;10.27;9.27;;;;;;;16.78;69.85;100692.31;4902794;28;98082;-75
2021/06/28 03:29:27;;;;;;;10.73;9.73;;;;;;;16.55;70.67;100691.34;4915798;28;98078;-74
2021/06/28 03:31:54;;;;;;;10.52;9.63;;;;;;;16.46;70.76;100698.59;4915959;28;125879;-74
2021/06/28 03:34:20;;;;;;;9.98;9.10;;;;;;;16.60;70.88;100698.59;4899972;28;127288;-76
2021/06/28 03:36:46;;;;;;;10.15;9.18;;;;;;;16.55;70.60;100709.59;4919537;28;102532;-77
2021/06/28 03:39:12;;;;;;;10.27;9.30;;;;;;;16.43;70.79;100702.72;4916551;28;125013;-75
2021/06/28 03:41:38;;;;;;;9.95;9.07;;;;;;;16.66;70.36;100702.81;4917340;28;124062;-74
2021/06/28 03:44:05;;;;;;;10.35;9.35;;;;;;;16.77;70.64;100703.47;4919367;28;126847;-76
2021/06/28 03:46:31;;;;;;;10.65;9.75;;;;;;;16.72;70.57;100709.78;4900049;28;98080;-76
2021/06/28 03:48:57;;;;;;;10.93;9.82;;;;;;;16.78;70.27;100705.91;4893625;28;103590;-75
2021/06/28 03:51:23;;;;;;;10.60;9.60;;;;;;;16.80;69.99;100700.94;4899452;28;127728;-75
2021/06/28 03:53:49;;;;;;;10.48;9.48;;;;;;;16.86;70.37;100704.41;4864913;28;127714;-76
2021/06/28 03:56:15;;;;;;;10.73;9.73;;;;;;;16.67;70.61;100702.53;4899326;28;98187;-76
2021/06/28 03:58:43;;;;;;;10.00;9.10;;;;;;;17.03;69.84;100706.50;4882394;28;104148;-75
2021/06/28 04:01:09;;;;;;;11.02;9.90;;;;;;;16.79;69.46;100712.16;4881950;28;108550;-77
2021/06/28 04:03:37;;;;;;;9.95;9.05;;;;;;;16.80;69.38;100713.75;4899684;28;98278;-77
2021/06/28 04:06:07;;;;;;;10.02;9.20;;;;;;;16.78;69.85;100713.25;4899286;28;97861;-75
2021/06/28 04:08:35;;;;;;;10.15;9.25;;;;;;;16.99;69.19;100708.22;4867030;28;100386;-76
2021/06/28 04:11:01;;;;;;;9.85;8.95;;;;;;;16.96;69.69;100714.25;4897874;28;100296;-77
2021/06/28 04:13:27;;;;;;;9.63;8.82;;;;;;;16.95;69.47;100718.91;4913969;28;114031;-75
2021/06/28 04:15:53;;;;;;;9.60;8.77;;;;;;;17.18;68.68;100709.69;4886514;28;115150;-76
2021/06/28 04:18:20;;;;;;;9.98;9.00;;;;;;;17.19;68.31;100707.78;4898416;28;128273;-75
2021/06/28 04:20:46;;;;;;;9.38;8.57;;;;;;;17.16;68.53;100703.72;4891652;28;100302;-75
2021/06/28 04:23:12;;;;;;;10.32;9.43;;;;;;;17.28;68.57;100707.84;4865423;28;100304;-74
2021/06/28 04:25:38;;;;;;;10.52;9.63;;;;;;;17.14;68.83;100702.44;4881372;28;121930;-74
2021/06/28 04:28:04;;;;;;;10.18;9.27;;;;;;;17.08;68.72;100709.91;4883572;28;98458;-76
2021/06/28 04:30:30;;;;;;;10.88;9.88;;;;;;;17.05;69.29;100710.50;4892544;28;98564;-76
2021/06/28 04:32:57;;;;;;;10.93;10.02;;;;;;;17.06;68.93;100698.53;4882260;28;98255;-76
2021/06/28 04:35:26;;;;;;;10.57;9.68;;;;;;;17.18;69.05;100704.25;4879921;28;121895;-74
2021/06/28 04:37:53;;;;;;;9.73;8.93;;;;;;;17.27;68.54;100708.97;4901729;28;98096;-74
2021/06/28 04:40:21;;;;;;;10.02;9.02;;;;;;;17.20;68.96;100714.03;4901051;28;106831;-74
2021/06/28 04:42:48;;;;;;;9.80;8.90;;;;;;;17.30;68.74;100719.25;4900038;28;107545;-76
2021/06/28 04:45:15;;;;;;;9.70;8.57;;;;;;;17.49;68.69;100719.91;4918115;28;98046;-78
2021/06/28 04:47:41;;;;;;;10.00;9.02;;;;;;;17.71;68.03;100712.88;4916759;28;97890;-76
2021/06/28 04:50:08;;;;;;;9.48;8.48;;;;;;;17.82;67.31;100703.38;4894729;28;127907;-74
2021/06/28 04:52:35;;;;;;;9.77;8.95;;;;;;;17.97;66.93;100705.72;4918773;28;104294;-76
2021/06/28 04:55:09;;;;;;;9.65;8.85;;;;;;;18.01;66.34;100709.44;4917228;28;98029;-74
2021/06/28 04:57:35;;;;;;;10.40;9.40;;;;;;;18.05;66.56;100713.16;4885590;28;98751;-74
2021/06/28 05:00:06;;;;;;;9.75;8.85;;;;;;;18.07;65.77;100718.28;4897425;28;114520;-76
2021/06/28 05:02:32;;;;;;;10.00;9.10;;;;;;;17.98;66.57;100714.69;4910904;28;105251;-74
2021/06/28 05:04:58;;;;;;;9.52;8.73;;;;;;;17.99;66.81;100714.38;4914269;28;120781;-77
2021/06/28 05:07:25;;;;;;;9.88;8.98;;;;;;;18.25;66.45;100711.00;4900176;28;127905;-73
2021/06/28 05:09:51;;;;;;;10.50;9.43;;;;;;;18.36;66.08;100715.09;4916712;28;98836;-76
2021/06/28 05:12:17;;;;;;;10.27;9.30;;;;;;;18.35;65.87;100706.09;4908358;28;127435;-73
2021/06/28 05:14:43;;;;;;;10.13;9.13;;;;;;;18.43;66.08;100709.16;4919244;28;97934;-74
2021/06/28 05:17:09;;;;;;;11.07;9.95;;;;;;;18.40;64.57;100718.81;4887504;28;100560;-76
2021/06/28 05:19:36;;;;;;;11.38;9.93;;;;;;;18.42;65.50;100716.53;4895201;28;98873;-76
2021/06/28 05:22:03;;;;;;;10.90;9.80;;;;;;;18.27;65.07;100720.47;4900561;28;113156;-75
2021/06/28 05:24:29;;;;;;;12.57;10.27;;;;;;;17.73;66.05;100729.72;4901294;28;97917;-73
2021/06/28 05:26:55;;;;;;;10.52;9.43;;;;;;;18.12;66.38;100726.34;4884100;28;118259;-76
2021/06/28 05:29:21;;;;;;;11.02;9.90;;;;;;;17.84;66.79;100728.38;4884023;28;113366;-72
2021/06/28 05:31:47;;;;;;;11.50;9.90;;;;;;;17.52;67.83;100724.72;4899405;28;126348;-75
2021/06/28 05:34:13;;;;;;;10.80;9.50;;;;;;;17.90;67.47;100725.22;4883277;28;98082;-73
2021/06/28 05:36:39;;;;;;;10.02;9.10;;;;;;;17.86;67.65;100724.25;4902131;28;98276;-75
2021/06/28 05:39:05;;;;;;;10.77;9.68;;;;;;;18.05;67.47;100720.53;4883499;28;125984;-73
2021/06/28 05:41:32;;;;;;;10.50;8.98;;;;;;;18.08;67.22;100726.16;4895486;28;97991;-72
2021/06/28 05:43:58;;;;;;;10.20;9.30;;;;;;;18.31;66.48;100718.75;4916253;28;102647;-75
2021/06/28 05:46:24;;;;;;;10.25;9.20;;;;;;;18.58;65.93;100719.66;4921093;28;116336;-75
2021/06/28 05:48:50;;;;;;;10.73;9.63;;;;;;;18.41;66.37;100723.13;4903261;28;99126;-72
2021/06/28 05:51:20;;;;;;;10.18;9.27;;;;;;;18.63;65.87;100725.81;4916576;28;98635;-73
2021/06/28 05:53:47;;;;;;;9.95;8.95;;;;;;;18.64;64.59;100729.34;4920837;28;98306;-73
2021/06/28 05:56:13;;;;;;;10.63;9.50;;;;;;;18.92;64.33;100720.97;4918079;28;105567;-76
2021/06/28 05:58:39;;;;;;;9.90;9.10;;;;;;;19.05;63.98;100728.22;4917996;28;104383;-76
2021/06/28 06:01:05;;;;;;;10.27;9.27;;;;;;;19.14;64.16;100726.31;4919387;28;97967;-75
2021/06/28 06:03:31;;;;;;;9.40;8.45;;;;;;;19.15;63.45;100727.13;4919799;28;99343;-73
2021/06/28 06:05:58;;;;;;;9.57;8.68;;;;;;;19.52;62.49;100729.25;4918734;28;98091;-73
2021/06/28 06:08:24;;;;;;;10.05;9.18;;;;;;;19.32;62.84;100735.34;4918938;28;99317;-73
2021/06/28 06:10:59;;;;;;;9.70;8.75;;;;;;;20.05;60.70;100736.34;4918627;28;98595;-75
2021/06/28 06:13:26;;;;;;;9.20;8.50;;;;;;;21.42;56.69;100729.00;4920775;28;97900;-72
2021/06/28 06:15:53;;;;;;;9.32;8.52;;;;;;;21.96;56.04;100726.28;4899139;28;114601;-72
2021/06/28 06:18:19;;;;;;;9.63;8.82;;;;;;;22.63;53.45;100733.31;4885230;28;98519;-75
2021/06/28 06:20:45;;;;;;;8.65;7.90;;;;;;;22.55;54.41;100737.78;4901913;28;125413;-72
2021/06/28 06:23:12;;;;;;;8.70;7.90;;;;;;;21.90;54.84;100735.88;4899062;28;112362;-72
2021/06/28 06:25:39;;;;;;;8.98;8.18;;;;;;;23.53;51.44;100731.44;4866808;28;99965;-73
2021/06/28 06:28:05;;;;;;;8.23;7.57;;;;;;;24.50;48.33;100726.66;4901009;28;99733;-73
2021/06/28 06:30:31;;;;;;;7.80;7.20;;;;;;;25.78;45.54;100730.75;4898871;28;125986;-73
2021/06/28 06:32:58;;;;;;;7.57;7.05;;;;;;;26.08;44.79;100736.47;4905515;28;109575;-73
2021/06/28 06:35:25;;;;;;;8.07;7.40;;;;;;;28.20;40.03;100735.66;4875972;28;98885;-76
2021/06/28 06:37:53;;;;;;;7.53;7.03;;;;;;;25.74;46.09;100733.41;4900898;28;97972;-76
2021/06/28 06:40:20;;;;;;;7.30;6.80;;;;;;;26.62;43.63;100739.06;4915837;28;97858;-75
2021/06/28 06:42:46;;;;;;;7.40;6.35;;;;;;;26.52;44.16;100733.34;4902876;28;97838;-73
2021/06/28 06:45:14;;;;;;;7.00;6.40;;;;;;;26.76;43.60;100737.66;4905769;28;98273;-73
2021/06/28 06:47:41;;;;;;;6.80;6.30;;;;;;;26.37;43.23;100735.00;4906320;28;98146;-74
2021/06/28 06:50:10;;;;;;;6.10;5.60;;;;;;;25.63;43.69;100744.25;4919690;28;98721;-73
2021/06/28 06:52:37;;;;;;;5.85;5.30;;;;;;;26.38;41.83;100742.16;4917887;28;98087;-75
2021/06/28 06:55:06;;;;;;;5.32;4.90;;;;;;;25.57;42.21;100740.16;4920077;28;114229;-75
2021/06/28 06:57:33;;;;;;;5.53;5.07;;;;;;;25.39;43.21;100739.81;4919327;28;99066;-74
2021/06/28 06:59:59;;;;;;;5.25;4.90;;;;;;;25.24;43.44;100734.34;4905825;28;100376;-75
2021/06/28 07:02:25;;;;;;;5.10;4.63;;;;;;;25.07;43.42;100735.47;4901281;28;98069;-72
2021/06/28 07:04:51;;;;;;;6.50;4.70;;;;;;;24.97;43.94;100734.88;4901016;28;127636;-73
2021/06/28 07:07:17;;;;;;;5.10;4.70;;;;;;;25.55;42.11;100733.44;4898356;28;128378;-74
2021/06/28 07:09:45;;;;;;;5.20;4.70;;;;;;;25.85;43.64;100736.44;4900249;28;127650;-75
2021/06/28 07:12:11;;;;;;;5.43;4.60;;;;;;;26.50;41.97;100733.72;4886309;28;98448;-74
2021/06/28 07:14:37;;;;;;;4.90;4.50;;;;;;;27.37;39.27;100731.91;4918201;28;110732;-73
2021/06/28 07:17:03;;;;;;;4.80;4.40;;;;;;;28.22;37.04;100733.28;4899225;28;126392;-73
2021/06/28 07:19:30;;;;;;;4.22;3.83;;;;;;;29.39;33.67;100729.84;4882032;28;97874;-75
2021/06/28 07:21:56;;;;;;;4.15;3.67;;;;;;;29.61;33.31;100733.56;4883685;28;123397;-74
2021/06/28 07:24:22;;;;;;;4.13;3.83;;;;;;;29.59;34.04;100745.03;4883002;28;98398;-71
2021/06/28 07:26:48;;;;;;;3.67;3.47;;;;;;;28.10;35.91;100734.38;4911975;28;127752;-74
2021/06/28 07:29:15;;;;;;;4.00;3.60;;;;;;;28.20;35.29;100730.91;4919688;28;98015;-70
2021/06/28 07:31:41;;;;;;;3.88;3.58;;;;;;;29.07;35.32;100734.03;4901448;28;97848;-70
2021/06/28 07:34:07;;;;;;;4.32;3.92;;;;;;;30.47;31.81;100735.34;4916751;28;127620;-70
2021/06/28 07:36:33;;;;;;;4.60;4.20;;;;;;;30.67;31.80;100740.53;4918984;28;99263;-72
2021/06/28 07:39:02;;;;;;;4.38;4.00;;;;;;;29.76;34.78;100737.97;4918813;28;102051;-72
2021/06/28 07:41:32;;;;;;;4.45;4.03;;;;;;;31.01;31.38;100732.56;4902966;28;98205;-72
2021/06/28 07:44:00;;;;;;;4.53;4.20;;;;;;;31.05;32.38;100738.91;4914637;28;98664;-72
2021/06/28 07:46:26;;;;;;;4.65;4.20;;;;;;;30.17;33.39;100732.13;4899789;28;98504;-72
2021/06/28 07:48:52;;;;;;;3.90;3.60;;;;;;;31.09;32.35;100724.97;4898989;28;109282;-70
2021/06/28 07:51:18;;;;;;;5.05;4.65;;;;;;;32.06;31.02;100723.41;4905651;28;122770;-70
2021/06/28 07:53:44;;;;;;;4.97;4.68;;;;;;;32.50;31.45;100727.50;4909319;28;127145;-72
2021/06/28 07:56:20;;;;;;;4.90;4.50;;;;;;;33.40;28.88;100728.19;4918996;28;109599;-72
2021/06/28 07:58:47;;;;;;;4.68;4.38;;;;;;;32.78;29.96;100723.69;4918281;28;98162;-70
2021/06/28 08:01:14;;;;;;;4.70;4.30;;;;;;;32.19;29.99;100718.97;4902187;28;98223;-72
2021/06/28 08:03:44;;;;;;;4.22;3.92;;;;;;;32.58;29.99;100712.31;4916864;28;98181;-71
2021/06/28 08:06:18;;;;;;;4.63;4.23;;;;;;;32.85;29.22;100717.22;4918883;28;98491;-71
2021/06/28 08:08:44;;;;;;;5.22;4.40;;;;;;;34.34;26.39;100705.38;4917579;28;97977;-72
2021/06/28 08:11:12;;;;;;;4.80;4.40;;;;;;;34.76;26.21;100715.06;4919151;28;98721;-70
2021/06/28 08:13:42;;;;;;;4.63;4.22;;;;;;;35.35;25.62;100705.16;4904439;28;127200;-72
2021/06/28 08:16:08;;;;;;;4.80;4.30;;;;;;;34.37;25.99;100705.31;4908697;28;99211;-71
2021/06/28 08:18:34;;;;;;;4.55;3.97;;;;;;;34.10;26.04;100701.75;4901957;28;97929;-71
2021/06/28 08:21:02;;;;;;;3.70;3.40;;;;;;;34.97;24.42;100713.88;4902914;28;99013;-72
2021/06/28 08:23:28;;;;;;;3.47;3.22;;;;;;;35.64;23.21;100708.94;4919272;28;98380;-72
2021/06/28 08:25:54;;;;;;;3.28;3.05;;;;;;;34.18;23.69;100712.41;4920826;28;98699;-70
2021/06/28 08:28:20;;;;;;;3.42;3.13;;;;;;;34.52;25.09;100703.09;4919769;28;126325;-71
2021/06/28 08:30:46;;;;;;;2.97;2.80;;;;;;;36.38;21.37;100699.25;4919518;28;123472;-71
2021/06/28 08:33:12;;;;;;;3.28;2.97;;;;;;;35.70;22.12;100703.63;4919799;28;127057;-70
2021/06/28 08:35:40;;;;;;;76.13;32.05;;;;;;;36.23;22.60;100701.59;4870332;28;97977;-72
2021/06/28 08:38:07;;;;;;;3.30;3.00;;;;;;;34.13;23.43;100701.72;4903351;28;97940;-72
2021/06/28 08:40:34;;;;;;;3.00;2.80;;;;;;;34.31;23.26;100695.84;4903790;28;97715;-71
2021/06/28 08:43:00;;;;;;;3.13;2.92;;;;;;;35.16;21.78;100698.34;4900774;28;109261;-70
2021/06/28 08:45:27;;;;;;;3.13;2.92;;;;;;;35.84;22.66;100697.72;4899431;28;128691;-72
2021/06/28 08:47:53;;;;;;;2.90;2.70;;;;;;;35.93;23.08;100690.72;4885222;28;97903;-71
2021/06/28 08:50:19;;;;;;;3.22;3.03;;;;;;;35.58;21.58;100690.28;4893243;28;101847;-72
2021/06/28 08:52:45;;;;;;;4.70;2.80;;;;;;;35.73;22.12;100699.97;4900918;28;128215;-71
2021/06/28 08:55:12;;;;;;;2.90;2.70;;;;;;;35.46;20.12;100686.13;4920994;28;98493;-72
2021/06/28 08:57:38;;;;;;;2.88;2.67;;;;;;;35.25;20.75;100692.94;4921942;28;98484;-71
2021/06/28 09:00:13;;;;;;;2.45;2.25;;;;;;;37.04;19.37;100680.28;4921963;28;97873;-72
2021/06/28 09:02:44;;;;;;;2.90;2.70;;;;;;;35.40;20.81;100688.63;4919909;28;99270;-72
2021/06/28 09:05:11;;;;;;;2.70;2.50;;;;;;;36.24;19.91;100688.41;4921716;28;98205;-72
2021/06/28 09:07:37;;;;;;;2.50;2.30;;;;;;;36.25;19.79;100690.75;4920484;28;98906;-72
2021/06/28 09:10:05;;;;;;;2.72;2.53;;;;;;;36.68;19.27;100680.47;4920559;28;120896;-72
2021/06/28 09:12:31;;;;;;;2.75;2.55;;;;;;;37.23;20.17;100676.53;4921107;28;99149;-71
2021/06/28 09:14:59;;;;;;;3.90;2.50;;;;;;;36.07;20.18;100676.38;4918108;28;99515;-72
2021/06/28 09:17:33;;;;;;;2.70;2.50;;;;;;;36.99;18.93;100678.03;4916210;28;98575;-72
2021/06/28 09:20:22;;;;;;;2.45;2.25;;;;;;;34.87;21.64;100678.50;4903102;28;97828;-71
2021/06/28 09:22:49;;;;;;;2.60;2.40;;;;;;;36.42;20.60;100685.91;4900610;28;98619;-71
2021/06/28 09:25:35;;;;;;;2.90;2.60;;;;;;;34.84;22.53;100684.94;4914278;28;98055;-71
2021/06/28 09:28:02;;;;;;;2.80;2.60;;;;;;;35.46;20.38;100677.72;4921431;28;97759;-72
2021/06/28 09:30:28;;;;;;;2.70;2.50;;;;;;;34.79;21.87;100671.44;4918880;28;97853;-71
2021/06/28 09:33:01;;;;;;;2.60;2.40;;;;;;;35.23;21.37;100675.78;4914822;28;98603;-72
2021/06/28 09:35:40;;;;;;;4.75;2.58;;;;;;;35.61;21.49;100669.81;4920933;28;99087;-70
2021/06/28 09:38:31;;;;;;;2.78;2.58;;;;;;;37.55;20.00;100677.63;4919495;28;98116;-71
2021/06/28 09:41:15;;;;;;;2.85;2.65;;;;;;;38.19;18.54;100686.06;4906530;28;97871;-72
2021/06/28 09:43:41;;;;;;;2.60;2.40;;;;;;;37.10;19.90;100670.06;4918192;28;97931;-71
2021/06/28 09:46:16;;;;;;;2.92;2.60;;;;;;;37.89;19.17;100667.75;4877334;28;126324;-71
2021/06/28 09:48:50;;;;;;;3.08;2.78;;;;;;;39.28;17.40;100677.03;4886129;28;98008;-72
2021/06/28 09:51:26;;;;;;;3.05;2.58;;;;;;;39.04;18.58;100680.28;4918363;28;97981;-71
2021/06/28 09:54:10;;;;;;;2.90;2.60;;;;;;;38.69;18.41;100684.38;4917165;28;98502;-72
2021/06/28 09:56:38;;;;;;;2.80;2.50;;;;;;;36.92;19.85;100675.41;4918949;28;99398;-71
2021/06/28 09:59:25;;;;;;;2.85;2.58;;;;;;;38.67;19.16;100679.19;4919949;28;114903;-71
2021/06/28 10:02:25;;;;;;;2.72;2.53;;;;;;;40.19;16.68;100679.47;4921244;28;98946;-73
2021/06/28 10:04:59;;;;;;;2.80;2.60;;;;;;;38.71;16.96;100674.25;4920279;28;97784;-73
2021/06/28 10:07:28;;;;;;;2.70;2.50;;;;;;;36.59;19.14;100656.63;4920564;28;98517;-73
2021/06/28 10:10:14;;;;;;;3.03;2.83;;;;;;;35.44;20.36;100645.75;4919365;28;98113;-71
2021/06/28 10:13:04;;;;;;;2.85;2.65;;;;;;;36.58;20.18;100641.00;4921797;28;98073;-73
2021/06/28 10:15:33;;;;;;;4.45;2.80;;;;;;;33.79;23.59;100640.31;4919045;28;99327;-72
2021/06/28 10:17:59;;;;;;;3.15;2.85;;;;;;;33.37;23.71;100639.69;4921301;28;98845;-72
2021/06/28 10:20:31;;;;;;;3.17;2.90;;;;;;;32.81;25.34;100639.13;4905940;28;97988;-71
2021/06/28 10:22:58;;;;;;;3.47;2.83;;;;;;;35.29;23.15;100642.44;4920048;28;97955;-72
2021/06/28 10:25:26;;;;;;;5.25;3.25;;;;;;;35.48;22.49;100644.44;4918296;28;100188;-71
2021/06/28 10:27:52;;;;;;;3.60;2.63;;;;;;;37.47;21.39;100645.34;4902375;28;99878;-72
2021/06/28 10:30:21;;;;;;;3.05;2.75;;;;;;;36.33;20.38;100643.66;4917953;28;115852;-72
2021/06/28 10:32:50;;;;;;;2.80;2.60;;;;;;;37.33;20.15;100633.25;4921320;28;98059;-71
2021/06/28 10:35:24;;;;;;;3.72;3.00;;;;;;;37.52;21.22;100636.34;4920025;28;98711;-71
2021/06/28 10:37:50;;;;;;;3.30;3.10;;;;;;;35.76;21.46;100634.59;4920066;28;98608;-73
2021/06/28 10:40:22;;;;;;;3.10;2.90;;;;;;;36.99;21.19;100625.47;4918592;28;98068;-72
2021/06/28 10:42:55;;;;;;;2.97;2.75;;;;;;;36.79;20.62;100622.03;4905796;28;97849;-72
2021/06/28 10:45:39;;;;;;;3.30;3.00;;;;;;;34.02;23.36;100619.22;4900920;28;97831;-72
2021/06/28 10:48:08;;;;;;;3.50;3.20;;;;;;;33.30;24.87;100611.06;4900685;28;106213;-72
2021/06/28 10:51:04;;;;;;;3.00;2.72;;;;;;;33.94;24.39;100610.13;4908470;28;98517;-71
2021/06/28 10:53:33;;;;;;;3.15;2.92;;;;;;;34.59;23.15;100624.66;4918523;28;98053;-71
2021/06/28 10:56:26;;;;;;;3.33;3.03;;;;;;;34.54;22.67;100622.31;4920188;28;98039;-71
2021/06/28 10:59:04;;;;;;;3.58;3.22;;;;;;;34.55;22.54;100615.53;4919915;28;98068;-72
2021/06/28 11:01:43;;;;;;;3.33;3.13;;;;;;;34.76;22.59;100608.72;4918380;28;98002;-72
2021/06/28 11:04:22;;;;;;;3.50;3.20;;;;;;;35.10;22.02;100599.28;4919993;28;98696;-71
2021/06/28 11:07:00;;;;;;;3.47;3.03;;;;;;;34.76;24.17;100596.75;4920161;28;98332;-71
2021/06/28 11:09:34;;;;;;;3.10;2.90;;;;;;;34.65;23.33;100600.53;4918949;28;97980;-71
2021/06/28 11:12:00;;;;;;;4.32;3.00;;;;;;;34.47;24.22;100599.25;4920266;28;98324;-71
2021/06/28 11:14:26;;;;;;;3.25;2.90;;;;;;;34.71;23.35;100600.06;4917386;28;97875;-72
2021/06/28 11:17:09;;;;;;;3.85;3.20;;;;;;;34.88;24.37;100604.50;4920295;28;98847;-72
2021/06/28 11:22:43;;;;;;;3.70;3.40;;;;;;;36.14;22.06;100604.06;4919406;28;97899;-72
2021/06/28 11:25:09;;;;;;;3.33;3.03;;;;;;;35.51;21.73;100595.97;4918325;28;97816;-72